Time;durP1;ratioP1;P1;durP2;ratioP2;P2;SDS_P1;SDS_P2;PMS_P1;PMS_P2;Temp;Humidity;BMP_temperature;BMP_pressure;BME280_temperature;BME280_humidity;BME280_pressure;Samples;Min_cycle;Max_cycle;Signal;HPM_P1;HPM_P2
2022/11/26 00:00:24;;;;;;;0.60;0.60;;;7.20;99.90;7.30;102341.00;;;;5095544;27;20288;-66
2022/11/26 00:03:13;;;;;;;0.30;0.30;;;7.10;99.90;7.00;102352.00;;;;5101165;27;20187;-66
2022/11/26 00:06:16;;;;;;;1.70;1.60;;;7.00;99.90;7.20;102345.00;;;;5013624;28;20273;-66
2022/11/26 00:09:10;;;;;;;0.30;0.30;;;7.00;99.90;7.30;102367.00;;;;5010881;28;20642;-66
2022/11/26 00:11:58;;;;;;;0.37;0.37;;;7.00;99.90;7.20;102361.00;;;;5102121;27;20219;-66
2022/11/26 00:14:35;;;;;;;2.73;2.53;;;7.00;99.90;7.10;102383.00;;;;5135908;27;20187;-66
2022/11/26 00:17:26;;;;;;;0.50;0.50;;;6.90;99.90;7.30;102319.00;;;;5124545;27;20264;-66
2022/11/26 00:20:33;;;;;;;0.30;0.30;;;7.00;99.90;7.00;102364.00;;;;5051508;28;20194;-66
2022/11/26 00:23:45;;;;;;;0.70;0.70;;;6.90;99.90;6.70;102365.00;;;;5034386;28;20209;-66
2022/11/26 00:26:49;;;;;;;0.60;0.60;;;6.90;99.90;7.10;102363.00;;;;5035092;28;20178;-66
2022/11/26 00:29:46;;;;;;;1.60;1.50;;;6.90;99.90;6.90;102363.00;;;;5030850;28;20197;-66
2022/11/26 00:32:54;;;;;;;0.50;0.50;;;6.80;99.90;6.90;102370.00;;;;5103474;27;20258;-66
2022/11/26 00:36:08;;;;;;;0.40;0.40;;;6.80;99.90;6.80;102390.00;;;;5118722;27;20670;-66
2022/11/26 00:42:50;;;;;;;0.40;0.40;;;6.80;99.90;7.00;102403.00;;;;5068160;27;20281;-66
2022/11/26 00:46:12;;;;;;;0.40;0.40;;;6.80;99.90;6.90;102392.00;;;;5107244;27;20241;-66
2022/11/26 00:49:19;;;;;;;0.77;0.77;;;6.80;99.90;6.80;102405.00;;;;5119316;27;20185;-66
2022/11/26 00:52:34;;;;;;;0.30;0.30;;;6.70;99.90;6.80;102411.00;;;;5093754;28;20238;-66
2022/11/26 00:55:38;;;;;;;1.90;1.77;;;6.70;99.90;6.80;102371.00;;;;5128478;27;20183;-66
2022/11/26 00:58:45;;;;;;;0.30;0.30;;;6.70;99.90;6.80;102416.00;;;;5114395;27;20190;-66
2022/11/26 01:01:52;;;;;;;1.93;1.83;;;6.60;99.90;6.50;102417.00;;;;5099793;27;20185;-66
2022/11/26 01:04:58;;;;;;;0.40;0.40;;;6.50;99.90;6.40;102405.00;;;;5115218;27;20210;-66
2022/11/26 01:08:14;;;;;;;8.87;8.27;;;6.50;99.90;6.80;102423.00;;;;5134455;27;20596;-66
2022/11/26 01:11:04;;;;;;;0.50;0.50;;;6.60;99.90;6.50;102421.00;;;;5115415;27;20194;-65
2022/11/26 01:13:55;;;;;;;1.53;1.43;;;6.50;99.90;6.50;102404.00;;;;5135180;27;20184;-66
2022/11/26 01:16:44;;;;;;;1.50;0.70;;;6.50;99.90;6.30;102418.00;;;;5115850;27;20206;-66
2022/11/26 01:19:23;;;;;;;3.80;3.60;;;6.50;99.90;6.40;102423.00;;;;5117345;27;20232;-66
2022/11/26 01:22:12;;;;;;;0.97;0.97;;;6.50;99.90;6.40;102429.00;;;;5100165;27;20220;-66
2022/11/26 01:25:16;;;;;;;0.63;0.63;;;6.40;99.90;6.50;102416.00;;;;5107218;28;20198;-66
2022/11/26 01:28:14;;;;;;;0.30;0.30;;;6.50;99.90;6.40;102423.00;;;;5128332;27;20657;-66
2022/11/26 01:31:08;;;;;;;0.40;0.40;;;6.40;99.90;6.40;102425.00;;;;5100544;28;20200;-66
2022/11/26 01:34:06;;;;;;;0.60;0.60;;;6.40;99.90;6.50;102420.00;;;;5115421;27;20642;-66
2022/11/26 01:37:03;;;;;;;0.40;0.40;;;6.40;99.90;6.50;102420.00;;;;5125703;27;20206;-66
2022/11/26 01:40:22;;;;;;;0.37;0.37;;;6.40;99.90;6.40;102422.00;;;;5111069;27;20542;-66
2022/11/26 01:44:03;;;;;;;3.80;3.70;;;6.40;99.90;6.40;102420.00;;;;5109858;27;20316;-66
2022/11/26 01:46:40;;;;;;;0.30;0.30;;;6.40;99.90;6.70;102429.00;;;;5026366;28;20199;-66
2022/11/26 01:49:26;;;;;;;0.50;0.50;;;6.40;99.90;6.30;102437.00;;;;5021560;28;20218;-66
2022/11/26 01:52:06;;;;;;;1.33;1.33;;;6.40;99.90;6.30;102436.00;;;;5011140;28;20215;-66
2022/11/26 01:55:01;;;;;;;0.53;0.53;;;6.40;99.90;6.30;102426.00;;;;5030750;28;20220;-66
2022/11/26 01:57:53;;;;;;;1.67;1.57;;;6.30;99.90;6.30;102424.00;;;;5052909;27;20276;-66
2022/11/26 02:01:08;;;;;;;8.33;5.13;;;6.30;99.90;6.40;102442.00;;;;5094867;27;20198;-66
2022/11/26 02:04:11;;;;;;;1.03;1.03;;;6.30;99.90;6.40;102455.00;;;;5111562;27;20645;-66
2022/11/26 02:07:23;;;;;;;10.73;2.60;;;6.30;99.90;6.40;102443.00;;;;5128427;27;20672;-66
2022/11/26 02:10:13;;;;;;;0.47;0.47;;;6.40;99.90;6.40;102436.00;;;;5099728;28;20179;-66
2022/11/26 02:12:50;;;;;;;0.50;0.50;;;6.30;99.90;6.40;102439.00;;;;5118583;27;20192;-66
2022/11/26 02:16:00;;;;;;;1.17;1.07;;;6.30;99.90;6.40;102420.00;;;;5095483;28;20183;-65
2022/11/26 02:19:14;;;;;;;1.03;0.90;;;6.40;99.90;6.40;102441.00;;;;5093635;28;20675;-65
2022/11/26 02:21:51;;;;;;;0.43;0.43;;;6.30;99.90;6.30;102387.00;;;;5127169;27;20186;-65
2022/11/26 02:25:03;;;;;;;0.33;0.33;;;6.30;99.90;6.10;102453.00;;;;5096048;27;20183;-66
2022/11/26 02:27:48;;;;;;;0.30;0.30;;;6.30;99.90;6.30;102446.00;;;;5099853;27;20668;-65
2022/11/26 02:30:24;;;;;;;0.50;0.50;;;6.30;99.90;6.20;102462.00;;;;5120799;28;20296;-65
2022/11/26 02:33:21;;;;;;;0.47;0.47;;;6.20;99.90;6.20;102457.00;;;;5105376;28;20226;-65
2022/11/26 02:36:16;;;;;;;1.70;1.60;;;6.20;99.90;6.20;102462.00;;;;5128028;28;20176;-65
2022/11/26 02:39:31;;;;;;;0.50;0.50;;;6.20;99.90;6.10;102460.00;;;;5106272;28;20694;-65
2022/11/26 02:42:38;;;;;;;0.60;0.60;;;6.20;99.90;6.30;102455.00;;;;5092255;28;20204;-65
2022/11/26 02:46:14;;;;;;;0.73;0.57;;;6.20;99.90;6.40;102458.00;;;;5109459;28;20244;-65
2022/11/26 02:49:03;;;;;;;2.67;1.60;;;6.30;99.90;6.40;102436.00;;;;5127323;28;20204;-65
2022/11/26 02:51:37;;;;;;;0.37;0.37;;;6.30;99.90;6.10;102454.00;;;;5102106;28;20233;-65
2022/11/26 02:54:25;;;;;;;0.80;0.80;;;6.20;99.90;6.10;102463.00;;;;5084587;28;20179;-65
2022/11/26 02:57:01;;;;;;;0.37;0.37;;;6.20;99.90;6.30;102461.00;;;;5110763;28;20662;-66
2022/11/26 02:59:43;;;;;;;0.33;0.33;;;6.20;99.90;6.10;102465.00;;;;5107178;28;20265;-65
2022/11/26 03:02:55;;;;;;;0.30;0.30;;;6.20;99.90;6.10;102469.00;;;;5120675;28;20234;-66
2022/11/26 03:05:39;;;;;;;0.40;0.40;;;6.20;99.90;6.00;102457.00;;;;5092927;28;20254;-65
2022/11/26 03:08:29;;;;;;;1.50;0.97;;;6.10;99.90;6.00;102462.00;;;;5110689;28;20226;-65
2022/11/26 03:11:04;;;;;;;1.13;1.03;;;6.20;99.90;6.00;102474.00;;;;5095558;28;20213;-65
2022/11/26 03:13:53;;;;;;;0.43;0.40;;;6.20;99.90;6.10;102435.00;;;;5115193;28;20200;-66
2022/11/26 03:16:46;;;;;;;1.47;1.13;;;6.20;99.90;6.20;102464.00;;;;5082930;28;20274;-66
2022/11/26 03:19:25;;;;;;;0.30;0.30;;;6.20;99.90;6.00;102457.00;;;;5084393;27;20582;-66
2022/11/26 03:22:14;;;;;;;0.40;0.40;;;6.10;99.90;6.10;102432.00;;;;5112986;27;20284;-66
2022/11/26 03:25:03;;;;;;;0.30;0.30;;;6.20;99.90;6.10;102463.00;;;;5103924;27;20179;-66
2022/11/26 03:27:57;;;;;;;0.50;0.50;;;6.10;99.90;6.20;102460.00;;;;5114960;27;20516;-66
2022/11/26 03:30:51;;;;;;;0.40;0.40;;;6.20;99.90;6.20;102468.00;;;;5055116;28;20554;-65
2022/11/26 03:33:45;;;;;;;2.10;0.83;;;6.20;99.90;6.10;102464.00;;;;5059461;28;20316;-65
2022/11/26 03:36:25;;;;;;;2.10;1.33;;;6.10;99.90;6.00;102464.00;;;;5096066;27;20212;-65
2022/11/26 03:39:19;;;;;;;1.73;1.63;;;6.10;99.90;6.00;102462.00;;;;5098441;28;20551;-66
2022/11/26 03:42:10;;;;;;;1.00;1.00;;;6.10;99.90;6.20;102469.00;;;;5081329;28;20198;-65
2022/11/26 03:45:02;;;;;;;0.30;0.30;;;6.10;99.90;6.10;102460.00;;;;5108651;27;20206;-65
2022/11/26 03:47:44;;;;;;;0.30;0.30;;;6.10;99.90;5.90;102466.00;;;;5114351;27;20634;-65
2022/11/26 03:50:19;;;;;;;0.30;0.30;;;6.10;99.90;6.30;102478.00;;;;5109440;28;20268;-65
2022/11/26 03:52:53;;;;;;;0.30;0.30;;;6.10;99.90;6.00;102414.00;;;;5101371;27;20216;-65
2022/11/26 03:55:46;;;;;;;0.40;0.40;;;6.10;99.90;6.20;102468.00;;;;5112344;27;20181;-65
2022/11/26 03:58:54;;;;;;;2.23;1.50;;;6.10;99.90;5.90;102471.00;;;;5052799;28;20211;-66
2022/11/26 04:01:25;;;;;;;1.50;1.30;;;6.10;99.90;6.10;102483.00;;;;5046009;28;20195;-65
2022/11/26 04:04:14;;;;;;;0.40;0.40;;;6.10;99.90;6.20;102479.00;;;;5115156;27;20201;-65
2022/11/26 04:06:45;;;;;;;1.90;1.80;;;6.10;99.90;6.20;102484.00;;;;5113601;27;20326;-66
2022/11/26 04:09:19;;;;;;;3.80;1.50;;;6.10;99.90;6.20;102432.00;;;;5097785;28;20192;-65
2022/11/26 04:11:55;;;;;;;0.30;0.30;;;6.10;99.90;6.70;102479.00;;;;5129605;27;20198;-65
2022/11/26 04:14:27;;;;;;;0.57;0.57;;;6.30;99.90;6.40;102475.00;;;;5114692;27;20331;-65
2022/11/26 04:17:04;;;;;;;0.63;0.63;;;6.20;99.90;6.10;102476.00;;;;5098186;27;20265;-66
2022/11/26 04:19:41;;;;;;;0.30;0.30;;;6.20;99.90;6.10;102475.00;;;;5130988;27;20190;-66
2022/11/26 04:22:15;;;;;;;1.80;1.60;;;6.10;99.90;5.80;102485.00;;;;5132563;27;20179;-66
2022/11/26 04:24:46;;;;;;;0.40;0.40;;;6.00;99.90;6.00;102480.00;;;;5112543;27;20191;-65
2022/11/26 04:27:37;;;;;;;0.73;0.60;;;6.00;99.90;5.90;102499.00;;;;5123721;27;20265;-66
2022/11/26 04:30:15;;;;;;;4.43;1.03;;;6.00;99.90;5.80;102425.00;;;;5097298;28;20182;-66
2022/11/26 04:32:46;;;;;;;0.30;0.30;;;6.00;99.90;6.00;102500.00;;;;5109788;27;20667;-66
2022/11/26 04:35:18;;;;;;;0.50;0.50;;;6.00;99.90;5.90;102508.00;;;;5125869;27;20204;-65
2022/11/26 04:37:56;;;;;;;0.23;0.23;;;6.00;99.90;6.10;102487.00;;;;5104076;28;20194;-66
2022/11/26 04:40:45;;;;;;;1.03;1.03;;;6.00;99.90;5.80;102440.00;;;;5117727;27;20580;-66
2022/11/26 04:43:28;;;;;;;0.30;0.30;;;6.00;99.90;6.20;102507.00;;;;5120570;27;20198;-66
2022/11/26 04:46:09;;;;;;;1.07;1.00;;;6.10;99.90;6.10;102494.00;;;;5116718;27;20537;-66
2022/11/26 04:48:46;;;;;;;0.27;0.27;;;6.10;99.90;6.00;102492.00;;;;5114687;27;20222;-65
2022/11/26 04:51:25;;;;;;;0.53;0.53;;;6.10;99.90;6.10;102497.00;;;;5109712;27;20190;-65
2022/11/26 04:54:08;;;;;;;0.30;0.30;;;6.20;99.90;6.00;102493.00;;;;5125561;27;20186;-65
2022/11/26 04:56:39;;;;;;;1.03;0.70;;;6.10;99.90;6.20;102491.00;;;;5113213;27;20538;-66
2022/11/26 04:59:14;;;;;;;0.30;0.30;;;6.10;99.90;6.20;102490.00;;;;5106846;28;20187;-65
2022/11/26 05:01:48;;;;;;;0.60;0.60;;;6.10;99.90;6.20;102495.00;;;;5120255;27;20198;-65
2022/11/26 05:04:21;;;;;;;0.30;0.30;;;6.10;99.90;6.10;102495.00;;;;5097210;28;20180;-66
2022/11/26 05:07:02;;;;;;;0.40;0.40;;;6.10;99.90;6.10;102508.00;;;;5109131;28;20678;-66
2022/11/26 05:09:36;;;;;;;0.30;0.30;;;6.10;99.90;6.00;102500.00;;;;5112864;27;20187;-65
2022/11/26 05:12:11;;;;;;;0.50;0.50;;;6.10;99.90;5.90;102503.00;;;;5124905;27;20210;-66
2022/11/26 05:14:37;;;;;;;1.63;1.53;;;6.00;99.90;5.90;102503.00;;;;5121892;27;20735;-65
2022/11/26 05:17:08;;;;;;;0.77;0.73;;;6.00;99.90;6.00;102491.00;;;;5122108;27;20215;-66
2022/11/26 05:19:39;;;;;;;0.50;0.50;;;6.00;99.90;6.10;102484.00;;;;5086407;27;20277;-65
2022/11/26 05:22:09;;;;;;;1.27;1.17;;;6.10;99.90;6.00;102503.00;;;;5126661;27;20183;-65
2022/11/26 05:24:37;;;;;;;0.43;0.43;;;6.00;99.90;6.00;102489.00;;;;5096680;28;20564;-66
2022/11/26 05:27:09;;;;;;;0.40;0.40;;;6.10;99.90;6.30;102506.00;;;;5103947;27;20281;-65
2022/11/26 05:29:43;;;;;;;0.30;0.30;;;6.20;99.90;6.20;102489.00;;;;5106226;28;20186;-65
2022/11/26 05:32:12;;;;;;;0.60;0.60;;;6.20;99.90;6.30;102512.00;;;;5097101;28;20219;-65
2022/11/26 05:34:41;;;;;;;0.53;0.53;;;6.20;99.90;6.30;102515.00;;;;5084672;27;20336;-65
2022/11/26 05:37:17;;;;;;;0.40;0.40;;;6.20;99.90;6.20;102512.00;;;;5120539;27;20180;-66
2022/11/26 05:39:57;;;;;;;0.47;0.47;;;6.20;99.90;6.00;102508.00;;;;5119240;27;20179;-65
2022/11/26 05:42:29;;;;;;;0.30;0.30;;;6.10;99.90;6.20;102522.00;;;;5096384;28;20184;-65
2022/11/26 05:45:09;;;;;;;0.50;0.50;;;6.20;99.90;6.00;102513.00;;;;5093040;28;20183;-65
2022/11/26 05:47:44;;;;;;;0.40;0.40;;;6.10;99.90;6.20;102521.00;;;;5102458;28;20181;-65
2022/11/26 05:50:21;;;;;;;0.30;0.30;;;6.10;99.90;6.40;102498.00;;;;5125823;27;20189;-65
2022/11/26 05:53:04;;;;;;;0.40;0.40;;;6.20;99.90;6.40;102497.00;;;;5111118;27;20209;-66
2022/11/26 05:55:53;;;;;;;0.40;0.40;;;6.20;99.90;6.30;102527.00;;;;5116153;27;20275;-65
2022/11/26 05:58:45;;;;;;;0.40;0.40;;;6.20;99.90;6.30;102523.00;;;;5110675;27;20199;-65
2022/11/26 06:01:24;;;;;;;0.40;0.40;;;6.20;99.90;6.50;102516.00;;;;5097313;28;20781;-65
2022/11/26 06:03:58;;;;;;;0.30;0.30;;;6.30;99.90;6.30;102518.00;;;;5109194;27;20250;-66
2022/11/26 06:06:36;;;;;;;0.30;0.30;;;6.20;99.90;6.40;102520.00;;;;5106113;28;20211;-65
2022/11/26 06:09:10;;;;;;;0.30;0.30;;;6.20;99.90;6.10;102526.00;;;;5106082;28;20187;-65
2022/11/26 06:11:51;;;;;;;1.17;1.07;;;6.20;99.90;6.20;102523.00;;;;5097175;28;20671;-65
2022/11/26 06:15:16;;;;;;;3.00;2.80;;;6.20;99.90;6.00;102523.00;;;;5106443;28;20180;-66
2022/11/26 06:18:41;;;;;;;0.30;0.30;;;6.20;99.90;6.10;102528.00;;;;5105539;27;20673;-65
2022/11/26 06:21:45;;;;;;;0.30;0.30;;;6.10;99.90;6.10;102533.00;;;;5057704;28;20656;-65
2022/11/26 06:24:14;;;;;;;0.30;0.30;;;6.10;99.90;6.10;102519.00;;;;5037541;28;20563;-65
2022/11/26 06:27:06;;;;;;;8.20;1.00;;;6.10;99.90;6.10;102536.00;;;;5051007;28;20211;-65
2022/11/26 06:29:40;;;;;;;0.70;0.70;;;6.10;99.90;6.10;102531.00;;;;5070561;28;20192;-65
2022/11/26 06:32:17;;;;;;;0.40;0.40;;;6.10;99.90;6.10;102530.00;;;;5100622;28;20670;-65
2022/11/26 06:35:26;;;;;;;0.53;0.53;;;6.10;99.90;6.10;102520.00;;;;5119454;28;20195;-65
2022/11/26 06:38:08;;;;;;;1.10;1.10;;;6.10;99.90;6.10;102541.00;;;;5126672;28;20655;-65
2022/11/26 06:40:43;;;;;;;0.73;0.73;;;6.10;99.90;6.00;102535.00;;;;5125823;28;20212;-65
2022/11/26 06:43:35;;;;;;;0.50;0.50;;;6.00;99.90;5.90;102547.00;;;;5098538;28;20197;-65
2022/11/26 06:46:31;;;;;;;0.90;0.90;;;6.00;99.90;6.00;102490.00;;;;5093956;28;20194;-65
2022/11/26 06:49:07;;;;;;;0.50;0.50;;;6.10;99.90;6.00;102485.00;;;;5115553;28;20284;-65
2022/11/26 06:52:16;;;;;;;0.30;0.30;;;6.10;99.90;6.00;102554.00;;;;5115452;28;20599;-65
2022/11/26 06:55:07;;;;;;;0.87;0.87;;;6.10;99.90;6.00;102508.00;;;;5098679;28;20648;-65
2022/11/26 06:57:47;;;;;;;5.80;0.97;;;6.10;99.90;6.10;102559.00;;;;5120453;27;20181;-66
2022/11/26 07:00:55;;;;;;;0.83;0.83;;;6.10;99.90;5.90;102556.00;;;;5099398;28;20274;-65
2022/11/26 07:03:54;;;;;;;0.70;0.67;;;6.10;99.90;6.00;102562.00;;;;5108570;28;20203;-65
2022/11/26 07:06:53;;;;;;;0.40;0.40;;;6.10;99.90;6.20;102554.00;;;;5106537;27;20195;-66
2022/11/26 07:09:27;;;;;;;0.80;0.80;;;6.20;99.90;6.10;102499.00;;;;5109565;27;20696;-66
2022/11/26 07:12:15;;;;;;;0.50;0.50;;;6.20;99.90;6.20;102563.00;;;;5109871;28;20210;-66
2022/11/26 07:14:47;;;;;;;10.30;4.43;;;6.30;99.90;6.10;102553.00;;;;5114737;28;20184;-65
2022/11/26 07:17:58;;;;;;;0.30;0.30;;;6.30;99.90;6.20;102576.00;;;;5108111;27;20214;-66
2022/11/26 07:20:52;;;;;;;0.30;0.30;;;6.20;99.90;6.20;102580.00;;;;5101862;27;20201;-65
2022/11/26 07:23:46;;;;;;;0.50;0.50;;;6.30;99.90;6.30;102582.00;;;;5029164;28;20281;-65
2022/11/26 07:26:44;;;;;;;0.73;0.73;;;6.30;99.90;6.50;102575.00;;;;5106015;27;20182;-65
2022/11/26 07:29:30;;;;;;;0.97;0.97;;;6.40;99.90;6.50;102518.00;;;;5132900;27;20206;-65
2022/11/26 07:32:19;;;;;;;0.30;0.30;;;6.40;99.90;6.50;102568.00;;;;5116815;27;20215;-65
2022/11/26 07:35:05;;;;;;;0.77;0.63;;;6.40;99.90;6.40;102576.00;;;;5106533;28;20273;-66
2022/11/26 07:37:46;;;;;;;0.40;0.40;;;6.40;99.90;6.30;102576.00;;;;5093280;27;20312;-66
2022/11/26 07:40:23;;;;;;;0.30;0.30;;;6.40;99.90;6.80;102582.00;;;;5105891;28;20190;-66
2022/11/26 07:43:04;;;;;;;0.30;0.30;;;6.60;99.90;6.60;102584.00;;;;5101415;27;20181;-66
2022/11/26 07:45:41;;;;;;;1.30;1.20;;;6.60;99.90;6.90;102588.00;;;;5109283;28;20199;-66
2022/11/26 07:48:24;;;;;;;1.43;1.33;;;6.60;99.90;6.70;102576.00;;;;5103470;27;21077;-65
2022/11/26 07:51:30;;;;;;;0.50;0.50;;;6.70;99.90;6.80;102574.00;;;;5116890;27;20649;-65
2022/11/26 07:54:17;;;;;;;0.50;0.50;;;6.80;99.90;6.60;102585.00;;;;5092045;27;20175;-65
2022/11/26 07:57:10;;;;;;;0.60;0.60;;;6.70;99.90;6.60;102593.00;;;;5088635;27;20256;-66
2022/11/26 08:00:34;;;;;;;1.30;1.20;;;6.70;99.90;6.60;102556.00;;;;5101258;28;20184;-66
2022/11/26 08:03:36;;;;;;;6.13;1.10;;;6.70;99.90;6.70;102589.00;;;;5128072;27;20400;-65
2022/11/26 08:06:17;;;;;;;0.80;0.80;;;6.80;99.90;6.80;102580.00;;;;5116982;27;20638;-65
2022/11/26 08:09:06;;;;;;;0.40;0.40;;;6.80;99.90;6.60;102603.00;;;;5088510;28;20597;-65
2022/11/26 08:11:42;;;;;;;0.90;0.90;;;6.90;99.90;6.90;102602.00;;;;5128146;27;20187;-65
2022/11/26 08:14:26;;;;;;;0.30;0.30;;;6.90;99.90;7.10;102605.00;;;;5103687;27;20190;-65
2022/11/26 08:17:15;;;;;;;0.63;0.63;;;7.00;99.90;7.00;102603.00;;;;5110038;27;20190;-66
2022/11/26 08:19:49;;;;;;;0.53;0.50;;;7.00;99.90;7.10;102603.00;;;;5104027;28;20176;-66
2022/11/26 08:22:14;;;;;;;0.30;0.30;;;7.10;99.90;7.10;102598.00;;;;5120817;27;20188;-66
2022/11/26 08:24:40;;;;;;;9.17;1.43;;;7.10;99.90;7.10;102557.00;;;;5116935;27;20674;-65
2022/11/26 08:27:09;;;;;;;0.30;0.30;;;7.10;99.90;7.10;102607.00;;;;5119998;27;20199;-65
2022/11/26 08:29:36;;;;;;;0.50;0.40;;;7.10;99.90;7.30;102608.00;;;;5102035;27;20184;-66
2022/11/26 08:32:02;;;;;;;1.47;1.37;;;7.20;99.90;7.20;102604.00;;;;5107301;27;20219;-66
2022/11/26 08:34:56;;;;;;;0.67;0.67;;;7.20;99.90;7.20;102616.00;;;;5100912;27;20549;-65
2022/11/26 08:37:22;;;;;;;6.90;2.37;;;7.20;99.90;7.40;102600.00;;;;5110493;27;20184;-66
2022/11/26 08:39:50;;;;;;;0.33;0.33;;;7.30;99.90;7.60;102606.00;;;;5113831;27;20181;-66
2022/11/26 08:42:17;;;;;;;0.97;0.97;;;7.40;99.90;7.20;102610.00;;;;5101395;27;20189;-66
2022/11/26 08:44:43;;;;;;;0.83;0.83;;;7.50;99.90;7.50;102598.00;;;;5114004;27;20229;-65
2022/11/26 08:47:12;;;;;;;2.10;0.83;;;7.50;99.90;7.50;102618.00;;;;5108745;27;20610;-66
2022/11/26 08:49:38;;;;;;;0.60;0.60;;;7.60;99.90;7.50;102608.00;;;;5110718;27;20184;-66
2022/11/26 08:52:24;;;;;;;0.30;0.30;;;7.50;99.90;7.90;102555.00;;;;5128434;27;20198;-66
2022/11/26 08:54:57;;;;;;;0.40;0.40;;;7.70;99.90;8.00;102603.00;;;;5121853;27;20177;-66
2022/11/26 08:57:28;;;;;;;0.40;0.40;;;7.80;99.90;8.10;102556.00;;;;5108455;27;20181;-66
2022/11/26 08:59:54;;;;;;;0.77;0.77;;;7.90;99.90;7.60;102602.00;;;;5105437;27;20200;-66
2022/11/26 09:02:22;;;;;;;2.13;1.93;;;7.80;99.90;7.60;102607.00;;;;5085500;27;20572;-66
2022/11/26 09:04:50;;;;;;;0.63;0.63;;;7.70;99.90;7.60;102598.00;;;;5109653;27;20594;-66
2022/11/26 09:07:59;;;;;;;1.00;0.93;;;7.70;99.90;7.80;102620.00;;;;5120910;27;20263;-66
2022/11/26 09:10:55;;;;;;;0.43;0.43;;;7.80;99.90;8.10;102600.00;;;;5108990;27;20250;-68
2022/11/26 09:13:26;;;;;;;0.67;0.67;;;8.00;99.90;8.10;102601.00;;;;5115307;27;20210;-66
2022/11/26 09:16:14;;;;;;;1.07;0.63;;;8.00;99.90;7.90;102606.00;;;;5119456;27;20230;-66
2022/11/26 09:19:07;;;;;;;0.60;0.60;;;8.00;99.90;8.00;102593.00;;;;5120546;27;20636;-66
2022/11/26 09:21:34;;;;;;;0.30;0.30;;;8.10;99.90;8.50;102611.00;;;;5102584;27;20271;-66
2022/11/26 09:24:01;;;;;;;0.60;0.60;;;8.30;99.90;8.60;102615.00;;;;5106389;28;20177;-66
2022/11/26 09:26:38;;;;;;;2.10;1.07;;;8.40;99.90;8.30;102608.00;;;;5099303;27;20574;-66
2022/11/26 09:29:19;;;;;;;8.23;2.10;;;8.40;99.90;8.50;102602.00;;;;5110060;28;20323;-66
2022/11/26 09:31:46;;;;;;;0.87;0.67;;;8.50;99.90;8.40;102610.00;;;;5090218;27;20269;-73
2022/11/26 09:34:13;;;;;;;2.90;1.03;;;8.50;99.90;9.00;102620.00;;;;5099583;27;20183;-70
2022/11/26 09:36:39;;;;;;;0.27;0.27;;;8.70;99.90;8.90;102630.00;;;;5097339;27;20195;-70
2022/11/26 09:39:05;;;;;;;0.30;0.30;;;8.80;99.90;8.90;102624.00;;;;5107679;28;20182;-69
2022/11/26 09:42:04;;;;;;;1.07;1.07;;;8.80;99.90;8.90;102629.00;;;;5112235;27;20241;-69
2022/11/26 09:44:57;;;;;;;0.33;0.33;;;8.80;99.90;8.90;102571.00;;;;5104294;28;20183;-70
2022/11/26 09:47:40;;;;;;;0.33;0.33;;;8.90;99.90;9.30;102611.00;;;;5109471;28;20190;-69
2022/11/26 09:50:12;;;;;;;1.93;1.83;;;9.20;99.90;9.20;102568.00;;;;5116111;27;20255;-72
2022/11/26 09:53:18;;;;;;;1.03;0.87;;;9.30;99.90;9.40;102602.00;;;;5121193;27;20268;-68
2022/11/26 09:55:51;;;;;;;0.20;0.20;;;9.50;99.90;9.80;102599.00;;;;5117981;27;20179;-68
2022/11/26 09:58:32;;;;;;;0.40;0.40;;;9.60;99.90;9.30;102605.00;;;;5113989;28;20547;-68
2022/11/26 10:01:13;;;;;;;0.20;0.20;;;9.60;99.90;9.90;102600.00;;;;5121005;27;20179;-68
2022/11/26 10:03:59;;;;;;;0.40;0.40;;;9.60;99.90;9.70;102607.00;;;;5103793;28;20192;-68
2022/11/26 10:06:49;;;;;;;0.30;0.30;;;9.70;99.90;9.50;102603.00;;;;5105058;27;20563;-68
2022/11/26 10:09:39;;;;;;;0.37;0.37;;;9.80;99.90;9.80;102600.00;;;;5115332;27;20563;-68
2022/11/26 10:12:59;;;;;;;1.40;1.40;;;9.70;99.90;9.60;102548.00;;;;5109389;28;20202;-68
2022/11/26 10:16:13;;;;;;;0.20;0.20;;;9.80;99.90;9.90;102548.00;;;;5114237;28;20188;-67
2022/11/26 10:19:05;;;;;;;1.07;1.07;;;9.90;99.90;10.00;102600.00;;;;5082556;28;20189;-67
2022/11/26 10:33:50;;;;;;;0.93;0.93;;;9.60;99.90;9.80;102587.00;;;;5070194;28;20550;-69
2022/11/26 10:36:26;;;;;;;1.33;1.23;;;9.80;99.90;9.50;102598.00;;;;5046577;28;20194;-69
2022/11/26 10:39:19;;;;;;;1.67;0.93;;;9.80;99.90;10.00;102568.00;;;;5048580;28;20637;-69
2022/11/26 10:42:12;;;;;;;0.57;0.57;;;10.00;99.90;9.90;102560.00;;;;5041022;28;20193;-71
2022/11/26 10:45:16;;;;;;;1.43;1.33;;;10.10;99.90;10.10;102591.00;;;;5076987;28;20216;-71
2022/11/26 10:47:48;;;;;;;0.73;0.73;;;10.20;99.90;10.00;102572.00;;;;5048755;28;20532;-69
2022/11/26 10:50:24;;;;;;;1.70;0.83;;;10.20;99.90;10.30;102567.00;;;;5050231;28;20183;-69
2022/11/26 10:52:54;;;;;;;2.40;2.30;;;10.30;99.90;10.60;102574.00;;;;5048618;28;20207;-71
2022/11/26 10:55:46;;;;;;;0.73;0.73;;;10.40;99.90;10.20;102578.00;;;;5048362;28;20179;-72
2022/11/26 10:58:50;;;;;;;0.97;0.97;;;10.40;99.90;10.20;102588.00;;;;5049685;28;20188;-71
2022/11/26 11:01:37;;;;;;;0.40;0.40;;;10.20;99.90;10.00;102582.00;;;;5045041;28;20252;-71
2022/11/26 11:05:07;;;;;;;0.43;0.43;;;10.10;99.90;10.20;102585.00;;;;5047398;28;20236;-71
2022/11/26 11:11:04;;;;;;;0.40;0.40;;;10.60;99.90;10.70;102570.00;;;;5050462;28;20195;-71
2022/11/26 11:13:45;;;;;;;0.87;0.87;;;10.60;99.90;10.70;102561.00;;;;5042261;28;20180;-71
2022/11/26 11:16:46;;;;;;;1.17;1.07;;;10.80;99.90;10.60;102558.00;;;;5045851;28;20198;-71
2022/11/26 11:19:41;;;;;;;0.20;0.20;;;10.70;99.90;10.60;102524.00;;;;5041209;28;20651;-71
2022/11/26 11:23:02;;;;;;;0.30;0.30;;;10.70;99.90;10.20;102588.00;;;;5048019;28;20181;-71
2022/11/26 11:25:37;;;;;;;0.20;0.20;;;10.40;99.90;11.40;102587.00;;;;5042703;28;20244;-71
2022/11/26 11:28:41;;;;;;;0.30;0.30;;;10.90;99.90;10.90;102528.00;;;;5043548;28;20207;-72
2022/11/26 11:31:18;;;;;;;0.97;0.80;;;11.00;99.90;10.90;102574.00;;;;5042132;28;20262;-71
2022/11/26 11:33:46;;;;;;;0.50;0.50;;;11.00;99.90;10.60;102584.00;;;;5031686;28;20547;-71
2022/11/26 11:36:50;;;;;;;0.30;0.30;;;10.80;99.90;10.90;102581.00;;;;5048050;28;20188;-71
2022/11/26 11:40:02;;;;;;;0.77;0.77;;;10.90;99.90;10.80;102573.00;;;;5046471;28;20191;-71
2022/11/26 11:42:33;;;;;;;0.20;0.20;;;11.10;99.90;10.80;102569.00;;;;5044735;28;20201;-71
2022/11/26 11:45:39;;;;;;;0.20;0.20;;;11.00;99.90;11.20;102524.00;;;;5034079;28;20186;-73
2022/11/26 11:48:42;;;;;;;0.30;0.30;;;11.10;99.90;12.30;102580.00;;;;5035200;28;20207;-73
2022/11/26 11:51:34;;;;;;;0.40;0.40;;;11.50;99.90;11.30;102578.00;;;;5033442;28;20187;-73
2022/11/26 11:54:18;;;;;;;0.20;0.20;;;11.50;99.90;11.20;102563.00;;;;5025422;28;20181;-73
2022/11/26 11:57:43;;;;;;;0.70;0.70;;;11.40;99.90;10.70;102573.00;;;;5034372;28;20237;-73
2022/11/26 12:00:57;;;;;;;0.43;0.43;;;11.10;99.90;10.90;102520.00;;;;4993601;28;20240;-72
2022/11/26 12:04:02;;;;;;;0.20;0.20;;;11.10;99.90;11.40;102573.00;;;;5039039;28;20605;-73
2022/11/26 12:06:31;;;;;;;2.27;1.07;;;11.40;99.90;11.30;102563.00;;;;5024783;28;20189;-73
2022/11/26 12:09:26;;;;;;;0.20;0.20;;;11.30;99.90;11.50;102574.00;;;;5035161;28;20192;-74
2022/11/26 12:12:08;;;;;;;0.50;0.50;;;11.40;99.90;11.30;102564.00;;;;5034725;28;20689;-74
2022/11/26 12:14:41;;;;;;;0.20;0.20;;;11.50;99.90;12.00;102559.00;;;;5032496;28;20187;-75
2022/11/26 12:17:45;;;;;;;0.30;0.30;;;11.70;99.90;11.20;102515.00;;;;5020403;28;20638;-74
2022/11/26 12:20:32;;;;;;;0.30;0.30;;;11.50;99.90;11.50;102539.00;;;;5028944;28;20178;-74
2022/11/26 12:23:57;;;;;;;1.60;1.50;;;11.50;99.90;11.00;102554.00;;;;5025659;28;20216;-74
2022/11/26 12:26:35;;;;;;;0.43;0.40;;;11.50;99.90;11.60;102560.00;;;;5012913;28;20281;-74
2022/11/26 12:29:25;;;;;;;0.53;0.53;;;11.60;99.90;11.50;102553.00;;;;5023440;28;20272;-74
2022/11/26 12:31:58;;;;;;;1.47;1.13;;;11.60;99.90;11.90;102545.00;;;;5028460;28;20225;-75
2022/11/26 12:34:52;;;;;;;1.33;0.57;;;11.70;99.90;12.00;102553.00;;;;5031756;28;20257;-74
2022/11/26 12:37:25;;;;;;;0.57;0.57;;;11.80;99.90;11.70;102557.00;;;;5010217;28;20199;-74
2022/11/26 12:40:02;;;;;;;0.30;0.30;;;11.80;99.90;11.60;102563.00;;;;5033506;28;20191;-73
2022/11/26 12:42:40;;;;;;;1.00;0.53;;;11.60;99.90;11.40;102567.00;;;;5033661;28;20190;-74
2022/11/26 12:45:48;;;;;;;0.20;0.20;;;11.50;99.90;11.70;102561.00;;;;5066635;28;20181;-72
2022/11/26 12:48:22;;;;;;;0.20;0.20;;;11.50;99.90;12.10;102559.00;;;;5033513;28;20254;-74